sensor_id;sensor_type;location;lat;lon;timestamp;temperature;humidity
53254;DHT22;39148;53.332;6.922;2022-08-01T00:00:12;21.10;80.40
53254;DHT22;39148;53.332;6.922;2022-08-01T00:02:38;21.20;80.40
53254;DHT22;39148;53.332;6.922;2022-08-01T00:05:04;21.10;80.40
53254;DHT22;39148;53.332;6.922;2022-08-01T00:07:34;21.10;80.40
53254;DHT22;39148;53.332;6.922;2022-08-01T00:10:00;21.20;80.50
53254;DHT22;39148;53.332;6.922;2022-08-01T00:12:26;21.20;80.60
53254;DHT22;39148;53.332;6.922;2022-08-01T00:14:52;21.30;80.40
53254;DHT22;39148;53.332;6.922;2022-08-01T00:17:17;21.20;80.50
53254;DHT22;39148;53.332;6.922;2022-08-01T00:19:43;21.10;80.60
53254;DHT22;39148;53.332;6.922;2022-08-01T00:22:09;21.10;80.50
53254;DHT22;39148;53.332;6.922;2022-08-01T00:24:34;21.20;80.60
53254;DHT22;39148;53.332;6.922;2022-08-01T00:27:00;21.10;80.50
53254;DHT22;39148;53.332;6.922;2022-08-01T00:29:26;21.20;80.50
53254;DHT22;39148;53.332;6.922;2022-08-01T00:31:51;21.00;80.40
53254;DHT22;39148;53.332;6.922;2022-08-01T00:34:17;21.10;80.50
53254;DHT22;39148;53.332;6.922;2022-08-01T00:36:43;21.10;80.60
53254;DHT22;39148;53.332;6.922;2022-08-01T01:05:19;21.00;79.80
53254;DHT22;39148;53.332;6.922;2022-08-01T01:13:46;21.00;79.80
53254;DHT22;39148;53.332;6.922;2022-08-01T01:16:15;20.90;80.90
53254;DHT22;39148;53.332;6.922;2022-08-01T01:18:54;21.00;80.70
53254;DHT22;39148;53.332;6.922;2022-08-01T01:31:51;20.90;79.70
53254;DHT22;39148;53.332;6.922;2022-08-01T01:34:19;21.00;80.80
53254;DHT22;39148;53.332;6.922;2022-08-01T01:36:47;20.90;80.70
53254;DHT22;39148;53.332;6.922;2022-08-01T01:39:15;21.00;80.80
53254;DHT22;39148;53.332;6.922;2022-08-01T01:41:43;20.90;80.70
53254;DHT22;39148;53.332;6.922;2022-08-01T01:44:10;20.90;80.70
53254;DHT22;39148;53.332;6.922;2022-08-01T01:46:36;21.00;80.70
53254;DHT22;39148;53.332;6.922;2022-08-01T01:49:03;20.90;80.70
53254;DHT22;39148;53.332;6.922;2022-08-01T01:51:30;20.90;80.70
53254;DHT22;39148;53.332;6.922;2022-08-01T01:53:57;21.00;80.70
53254;DHT22;39148;53.332;6.922;2022-08-01T01:56:24;21.00;80.70
53254;DHT22;39148;53.332;6.922;2022-08-01T01:58:54;20.90;80.70
53254;DHT22;39148;53.332;6.922;2022-08-01T02:01:24;21.00;80.80
53254;DHT22;39148;53.332;6.922;2022-08-01T02:03:51;20.80;80.80
53254;DHT22;39148;53.332;6.922;2022-08-01T02:06:19;20.80;80.60
53254;DHT22;39148;53.332;6.922;2022-08-01T02:08:46;20.90;80.70
53254;DHT22;39148;53.332;6.922;2022-08-01T02:11:13;20.90;80.80
53254;DHT22;39148;53.332;6.922;2022-08-01T02:13:57;20.80;79.90
53254;DHT22;39148;53.332;6.922;2022-08-01T02:16:26;21.00;81.00
53254;DHT22;39148;53.332;6.922;2022-08-01T02:18:53;20.80;80.70
53254;DHT22;39148;53.332;6.922;2022-08-01T02:21:27;20.80;80.70
53254;DHT22;39148;53.332;6.922;2022-08-01T02:23:55;20.80;80.90
53254;DHT22;39148;53.332;6.922;2022-08-01T02:26:24;20.80;80.80
53254;DHT22;39148;53.332;6.922;2022-08-01T02:28:57;20.70;80.60
53254;DHT22;39148;53.332;6.922;2022-08-01T02:31:25;20.90;80.90
53254;DHT22;39148;53.332;6.922;2022-08-01T02:34:01;20.80;80.70
53254;DHT22;39148;53.332;6.922;2022-08-01T02:36:33;20.90;81.00
53254;DHT22;39148;53.332;6.922;2022-08-01T02:39:09;20.80;80.80
53254;DHT22;39148;53.332;6.922;2022-08-01T02:41:41;20.80;79.60
53254;DHT22;39148;53.332;6.922;2022-08-01T02:44:09;20.90;81.00
53254;DHT22;39148;53.332;6.922;2022-08-01T02:46:43;20.70;80.80
53254;DHT22;39148;53.332;6.922;2022-08-01T02:49:11;20.80;80.90
53254;DHT22;39148;53.332;6.922;2022-08-01T02:51:39;20.80;80.80
53254;DHT22;39148;53.332;6.922;2022-08-01T02:54:08;20.80;80.80
53254;DHT22;39148;53.332;6.922;2022-08-01T02:56:35;20.80;80.80
53254;DHT22;39148;53.332;6.922;2022-08-01T02:59:08;20.80;80.80
53254;DHT22;39148;53.332;6.922;2022-08-01T03:01:35;20.70;80.90
53254;DHT22;39148;53.332;6.922;2022-08-01T03:04:03;20.70;80.80
53254;DHT22;39148;53.332;6.922;2022-08-01T03:06:32;20.70;80.80
53254;DHT22;39148;53.332;6.922;2022-08-01T03:08:59;20.80;80.90
53254;DHT22;39148;53.332;6.922;2022-08-01T03:11:26;20.70;80.80
53254;DHT22;39148;53.332;6.922;2022-08-01T03:13:53;20.70;80.70
53254;DHT22;39148;53.332;6.922;2022-08-01T03:16:22;20.70;80.80
53254;DHT22;39148;53.332;6.922;2022-08-01T03:18:53;20.60;80.70
53254;DHT22;39148;53.332;6.922;2022-08-01T03:21:20;20.60;80.70
53254;DHT22;39148;53.332;6.922;2022-08-01T03:23:49;20.70;80.80
53254;DHT22;39148;53.332;6.922;2022-08-01T03:26:16;20.80;80.90
53254;DHT22;39148;53.332;6.922;2022-08-01T03:28:42;20.70;80.70
53254;DHT22;39148;53.332;6.922;2022-08-01T03:31:10;20.70;80.80
53254;DHT22;39148;53.332;6.922;2022-08-01T03:33:37;20.60;80.70
53254;DHT22;39148;53.332;6.922;2022-08-01T03:36:05;20.70;80.60
53254;DHT22;39148;53.332;6.922;2022-08-01T03:38:34;20.70;80.80
53254;DHT22;39148;53.332;6.922;2022-08-01T03:41:21;20.70;80.80
53254;DHT22;39148;53.332;6.922;2022-08-01T03:43:56;20.70;81.00
53254;DHT22;39148;53.332;6.922;2022-08-01T03:46:33;20.60;80.90
53254;DHT22;39148;53.332;6.922;2022-08-01T03:49:05;20.60;80.90
53254;DHT22;39148;53.332;6.922;2022-08-01T03:51:31;20.60;80.80
53254;DHT22;39148;53.332;6.922;2022-08-01T03:54:00;20.50;81.00
53254;DHT22;39148;53.332;6.922;2022-08-01T03:56:27;20.60;80.90
53254;DHT22;39148;53.332;6.922;2022-08-01T03:58:54;20.60;80.80
53254;DHT22;39148;53.332;6.922;2022-08-01T04:01:20;20.60;80.70
53254;DHT22;39148;53.332;6.922;2022-08-01T04:03:46;20.60;80.70
53254;DHT22;39148;53.332;6.922;2022-08-01T04:06:12;20.70;80.80
53254;DHT22;39148;53.332;6.922;2022-08-01T04:08:40;20.60;80.70
53254;DHT22;39148;53.332;6.922;2022-08-01T04:11:08;20.60;80.80
53254;DHT22;39148;53.332;6.922;2022-08-01T04:13:34;20.50;80.80
53254;DHT22;39148;53.332;6.922;2022-08-01T04:16:00;20.50;80.60
53254;DHT22;39148;53.332;6.922;2022-08-01T04:18:26;20.50;80.70
53254;DHT22;39148;53.332;6.922;2022-08-01T04:20:51;20.50;80.60
53254;DHT22;39148;53.332;6.922;2022-08-01T04:23:20;20.70;80.80
53254;DHT22;39148;53.332;6.922;2022-08-01T04:25:50;20.50;80.80
53254;DHT22;39148;53.332;6.922;2022-08-01T04:28:17;20.50;80.80
53254;DHT22;39148;53.332;6.922;2022-08-01T04:30:46;20.40;80.70
53254;DHT22;39148;53.332;6.922;2022-08-01T04:33:15;20.40;80.80
53254;DHT22;39148;53.332;6.922;2022-08-01T04:35:46;20.50;80.80
53254;DHT22;39148;53.332;6.922;2022-08-01T04:38:16;20.40;80.90
53254;DHT22;39148;53.332;6.922;2022-08-01T04:40:44;20.40;80.80
53254;DHT22;39148;53.332;6.922;2022-08-01T04:43:11;20.40;80.80
53254;DHT22;39148;53.332;6.922;2022-08-01T04:45:38;20.40;80.70
53254;DHT22;39148;53.332;6.922;2022-08-01T04:48:07;20.50;81.10
53254;DHT22;39148;53.332;6.922;2022-08-01T04:50:35;20.30;80.90
53254;DHT22;39148;53.332;6.922;2022-08-01T04:53:02;20.40;80.80
53254;DHT22;39148;53.332;6.922;2022-08-01T04:55:28;20.40;80.80
53254;DHT22;39148;53.332;6.922;2022-08-01T04:57:54;20.40;80.70
53254;DHT22;39148;53.332;6.922;2022-08-01T05:00:20;20.30;80.60
53254;DHT22;39148;53.332;6.922;2022-08-01T05:02:46;20.30;80.60
53254;DHT22;39148;53.332;6.922;2022-08-01T05:05:12;20.30;80.70
53254;DHT22;39148;53.332;6.922;2022-08-01T05:07:38;20.40;80.70
53254;DHT22;39148;53.332;6.922;2022-08-01T05:10:04;20.20;80.60
53254;DHT22;39148;53.332;6.922;2022-08-01T05:12:31;20.30;80.60
53254;DHT22;39148;53.332;6.922;2022-08-01T05:15:00;20.30;80.70
53254;DHT22;39148;53.332;6.922;2022-08-01T05:17:27;20.30;79.50
53254;DHT22;39148;53.332;6.922;2022-08-01T05:19:52;20.20;80.60
53254;DHT22;39148;53.332;6.922;2022-08-01T05:22:18;20.30;80.70
53254;DHT22;39148;53.332;6.922;2022-08-01T05:24:44;20.20;80.90
53254;DHT22;39148;53.332;6.922;2022-08-01T05:27:10;20.80;80.90
53254;DHT22;39148;53.332;6.922;2022-08-01T05:29:35;20.20;80.60
53254;DHT22;39148;53.332;6.922;2022-08-01T05:32:01;20.30;80.70
53254;DHT22;39148;53.332;6.922;2022-08-01T05:34:27;20.20;80.70
53254;DHT22;39148;53.332;6.922;2022-08-01T05:36:53;20.20;80.70
53254;DHT22;39148;53.332;6.922;2022-08-01T05:39:19;20.30;80.80
53254;DHT22;39148;53.332;6.922;2022-08-01T05:41:45;20.20;80.70
53254;DHT22;39148;53.332;6.922;2022-08-01T05:44:11;20.20;80.60
53254;DHT22;39148;53.332;6.922;2022-08-01T05:46:37;20.10;80.60
53254;DHT22;39148;53.332;6.922;2022-08-01T05:49:04;20.20;80.80
53254;DHT22;39148;53.332;6.922;2022-08-01T05:51:30;20.20;80.70
53254;DHT22;39148;53.332;6.922;2022-08-01T05:53:56;20.20;80.70
53254;DHT22;39148;53.332;6.922;2022-08-01T05:56:22;20.20;80.80
53254;DHT22;39148;53.332;6.922;2022-08-01T05:58:49;20.20;80.80
53254;DHT22;39148;53.332;6.922;2022-08-01T06:01:15;20.20;80.80
53254;DHT22;39148;53.332;6.922;2022-08-01T06:03:41;20.20;80.80
53254;DHT22;39148;53.332;6.922;2022-08-01T06:06:06;20.10;80.80
53254;DHT22;39148;53.332;6.922;2022-08-01T06:08:32;20.10;80.50
53254;DHT22;39148;53.332;6.922;2022-08-01T06:10:58;20.10;80.70
53254;DHT22;39148;53.332;6.922;2022-08-01T06:13:24;20.10;80.70
53254;DHT22;39148;53.332;6.922;2022-08-01T06:15:50;20.10;80.60
53254;DHT22;39148;53.332;6.922;2022-08-01T06:18:16;20.10;80.70
53254;DHT22;39148;53.332;6.922;2022-08-01T06:20:42;20.10;80.70
53254;DHT22;39148;53.332;6.922;2022-08-01T06:23:09;20.10;80.70
53254;DHT22;39148;53.332;6.922;2022-08-01T06:25:35;20.20;80.80
53254;DHT22;39148;53.332;6.922;2022-08-01T06:28:01;20.20;80.60
53254;DHT22;39148;53.332;6.922;2022-08-01T06:30:26;20.10;80.70
53254;DHT22;39148;53.332;6.922;2022-08-01T06:32:52;20.10;80.70
53254;DHT22;39148;53.332;6.922;2022-08-01T06:35:21;20.10;80.70
53254;DHT22;39148;53.332;6.922;2022-08-01T06:37:47;20.10;80.70
53254;DHT22;39148;53.332;6.922;2022-08-01T06:40:14;20.10;80.80
53254;DHT22;39148;53.332;6.922;2022-08-01T06:42:40;20.10;80.70
53254;DHT22;39148;53.332;6.922;2022-08-01T06:45:08;20.00;80.70
53254;DHT22;39148;53.332;6.922;2022-08-01T06:47:35;20.10;80.70
53254;DHT22;39148;53.332;6.922;2022-08-01T06:50:01;20.10;80.90
53254;DHT22;39148;53.332;6.922;2022-08-01T06:52:27;20.10;80.70
53254;DHT22;39148;53.332;6.922;2022-08-01T06:54:53;20.10;80.60
53254;DHT22;39148;53.332;6.922;2022-08-01T06:57:18;20.10;80.70
53254;DHT22;39148;53.332;6.922;2022-08-01T06:59:44;20.10;80.70
53254;DHT22;39148;53.332;6.922;2022-08-01T07:02:10;20.10;80.70
53254;DHT22;39148;53.332;6.922;2022-08-01T07:04:36;19.90;80.50
53254;DHT22;39148;53.332;6.922;2022-08-01T07:07:02;20.00;80.70
53254;DHT22;39148;53.332;6.922;2022-08-01T07:09:28;20.00;80.60
53254;DHT22;39148;53.332;6.922;2022-08-01T07:11:54;20.10;80.60
53254;DHT22;39148;53.332;6.922;2022-08-01T07:14:21;20.00;80.70
53254;DHT22;39148;53.332;6.922;2022-08-01T07:16:47;20.00;80.60
53254;DHT22;39148;53.332;6.922;2022-08-01T07:19:12;20.10;80.60
53254;DHT22;39148;53.332;6.922;2022-08-01T07:21:38;20.10;80.50
53254;DHT22;39148;53.332;6.922;2022-08-01T07:24:05;20.00;80.60
53254;DHT22;39148;53.332;6.922;2022-08-01T07:26:31;20.00;80.50
53254;DHT22;39148;53.332;6.922;2022-08-01T07:28:57;20.10;80.60
53254;DHT22;39148;53.332;6.922;2022-08-01T07:31:23;19.90;80.50
53254;DHT22;39148;53.332;6.922;2022-08-01T07:33:49;20.10;80.50
53254;DHT22;39148;53.332;6.922;2022-08-01T07:36:16;20.00;80.60
53254;DHT22;39148;53.332;6.922;2022-08-01T07:38:42;20.10;80.60
53254;DHT22;39148;53.332;6.922;2022-08-01T07:41:08;20.10;80.50
53254;DHT22;39148;53.332;6.922;2022-08-01T07:43:33;20.00;80.40
53254;DHT22;39148;53.332;6.922;2022-08-01T07:46:04;20.00;80.50
53254;DHT22;39148;53.332;6.922;2022-08-01T07:48:30;20.00;79.30
53254;DHT22;39148;53.332;6.922;2022-08-01T07:50:56;20.10;80.50
53254;DHT22;39148;53.332;6.922;2022-08-01T07:53:22;20.10;80.30
53254;DHT22;39148;53.332;6.922;2022-08-01T07:55:47;20.20;80.50
53254;DHT22;39148;53.332;6.922;2022-08-01T07:58:14;20.10;80.40
53254;DHT22;39148;53.332;6.922;2022-08-01T08:00:40;20.10;80.40
53254;DHT22;39148;53.332;6.922;2022-08-01T08:03:05;20.10;80.30
53254;DHT22;39148;53.332;6.922;2022-08-01T08:05:32;20.20;80.40
53254;DHT22;39148;53.332;6.922;2022-08-01T08:08:10;20.20;80.10
53254;DHT22;39148;53.332;6.922;2022-08-01T08:10:37;20.20;80.60
53254;DHT22;39148;53.332;6.922;2022-08-01T08:13:02;20.20;80.50
53254;DHT22;39148;53.332;6.922;2022-08-01T08:15:28;20.20;80.30
53254;DHT22;39148;53.332;6.922;2022-08-01T08:17:54;20.20;80.30
53254;DHT22;39148;53.332;6.922;2022-08-01T08:20:20;20.20;80.20
53254;DHT22;39148;53.332;6.922;2022-08-01T08:22:50;20.10;80.20
53254;DHT22;39148;53.332;6.922;2022-08-01T08:25:17;20.20;80.30
53254;DHT22;39148;53.332;6.922;2022-08-01T08:27:45;20.30;80.20
53254;DHT22;39148;53.332;6.922;2022-08-01T08:30:11;20.30;80.30
53254;DHT22;39148;53.332;6.922;2022-08-01T08:32:38;20.30;80.20
53254;DHT22;39148;53.332;6.922;2022-08-01T08:35:05;20.20;80.10
53254;DHT22;39148;53.332;6.922;2022-08-01T08:37:31;20.20;80.00
53254;DHT22;39148;53.332;6.922;2022-08-01T08:39:57;20.40;80.10
53254;DHT22;39148;53.332;6.922;2022-08-01T08:42:23;20.30;80.00
53254;DHT22;39148;53.332;6.922;2022-08-01T08:44:49;20.30;80.00
53254;DHT22;39148;53.332;6.922;2022-08-01T08:47:15;20.40;80.00
53254;DHT22;39148;53.332;6.922;2022-08-01T08:49:43;20.40;80.00
53254;DHT22;39148;53.332;6.922;2022-08-01T08:52:10;20.40;80.20
53254;DHT22;39148;53.332;6.922;2022-08-01T08:54:37;20.40;80.10
53254;DHT22;39148;53.332;6.922;2022-08-01T08:57:04;20.50;80.10
53254;DHT22;39148;53.332;6.922;2022-08-01T08:59:31;20.50;80.00
53254;DHT22;39148;53.332;6.922;2022-08-01T09:01:57;20.40;79.90
53254;DHT22;39148;53.332;6.922;2022-08-01T09:04:23;20.50;79.90
53254;DHT22;39148;53.332;6.922;2022-08-01T09:06:49;20.60;79.90
53254;DHT22;39148;53.332;6.922;2022-08-01T09:09:15;20.50;79.80
53254;DHT22;39148;53.332;6.922;2022-08-01T09:11:41;20.40;79.70
53254;DHT22;39148;53.332;6.922;2022-08-01T09:14:11;20.50;79.70
53254;DHT22;39148;53.332;6.922;2022-08-01T09:16:41;20.60;78.50
53254;DHT22;39148;53.332;6.922;2022-08-01T09:19:09;20.60;79.90
53254;DHT22;39148;53.332;6.922;2022-08-01T09:21:36;20.60;79.80
53254;DHT22;39148;53.332;6.922;2022-08-01T09:24:02;20.60;79.70
53254;DHT22;39148;53.332;6.922;2022-08-01T09:26:35;20.70;79.60
53254;DHT22;39148;53.332;6.922;2022-08-01T09:29:04;20.70;79.80
53254;DHT22;39148;53.332;6.922;2022-08-01T09:31:40;20.70;79.70
53254;DHT22;39148;53.332;6.922;2022-08-01T09:34:07;20.70;79.70
53254;DHT22;39148;53.332;6.922;2022-08-01T09:36:55;20.70;79.50
53254;DHT22;39148;53.332;6.922;2022-08-01T09:39:28;20.80;79.80
53254;DHT22;39148;53.332;6.922;2022-08-01T09:41:56;20.70;78.40
53254;DHT22;39148;53.332;6.922;2022-08-01T09:47:02;20.80;79.70
53254;DHT22;39148;53.332;6.922;2022-08-01T09:49:30;20.80;79.60
53254;DHT22;39148;53.332;6.922;2022-08-01T09:51:58;20.90;79.60
53254;DHT22;39148;53.332;6.922;2022-08-01T09:54:33;20.70;79.40
53254;DHT22;39148;53.332;6.922;2022-08-01T09:57:16;20.90;79.60
53254;DHT22;39148;53.332;6.922;2022-08-01T09:59:45;20.90;78.40
53254;DHT22;39148;53.332;6.922;2022-08-01T10:02:13;20.90;79.40
53254;DHT22;39148;53.332;6.922;2022-08-01T10:04:50;20.90;79.40
53254;DHT22;39148;53.332;6.922;2022-08-01T10:07:17;20.90;79.60
53254;DHT22;39148;53.332;6.922;2022-08-01T10:09:44;21.00;79.30
53254;DHT22;39148;53.332;6.922;2022-08-01T10:12:15;21.00;79.30
53254;DHT22;39148;53.332;6.922;2022-08-01T10:14:42;21.00;78.10
53254;DHT22;39148;53.332;6.922;2022-08-01T10:17:11;21.00;79.20
53254;DHT22;39148;53.332;6.922;2022-08-01T10:19:40;21.00;79.30
53254;DHT22;39148;53.332;6.922;2022-08-01T10:22:12;19.10;78.30
53254;DHT22;39148;53.332;6.922;2022-08-01T10:24:44;21.10;79.40
53254;DHT22;39148;53.332;6.922;2022-08-01T10:27:10;21.10;79.30
53254;DHT22;39148;53.332;6.922;2022-08-01T10:32:08;21.10;77.90
53254;DHT22;39148;53.332;6.922;2022-08-01T10:34:36;21.20;79.10
53254;DHT22;39148;53.332;6.922;2022-08-01T10:37:03;21.20;79.20
53254;DHT22;39148;53.332;6.922;2022-08-01T10:39:31;21.30;79.20
53254;DHT22;39148;53.332;6.922;2022-08-01T10:41:57;21.20;79.10
53254;DHT22;39148;53.332;6.922;2022-08-01T10:44:25;21.30;79.10
53254;DHT22;39148;53.332;6.922;2022-08-01T10:46:57;21.30;79.10
53254;DHT22;39148;53.332;6.922;2022-08-01T10:49:26;21.50;79.20
53254;DHT22;39148;53.332;6.922;2022-08-01T10:51:53;21.40;79.10
53254;DHT22;39148;53.332;6.922;2022-08-01T10:54:19;21.30;78.80
53254;DHT22;39148;53.332;6.922;2022-08-01T10:56:47;21.40;78.80
53254;DHT22;39148;53.332;6.922;2022-08-01T10:59:24;19.30;77.80
53254;DHT22;39148;53.332;6.922;2022-08-01T11:02:00;21.50;79.60
53254;DHT22;39148;53.332;6.922;2022-08-01T11:07:07;21.50;77.80
53254;DHT22;39148;53.332;6.922;2022-08-01T11:09:43;21.50;78.80
53254;DHT22;39148;53.332;6.922;2022-08-01T11:12:17;21.50;77.80
53254;DHT22;39148;53.332;6.922;2022-08-01T11:17:37;21.60;78.80
53254;DHT22;39148;53.332;6.922;2022-08-01T11:20:14;21.60;77.40
53254;DHT22;39148;53.332;6.922;2022-08-01T11:33:19;21.70;78.30
53254;DHT22;39148;53.332;6.922;2022-08-01T11:38:45;21.70;77.50
53254;DHT22;39148;53.332;6.922;2022-08-01T11:44:05;21.80;77.20
53254;DHT22;39148;53.332;6.922;2022-08-01T11:46:54;21.80;78.40
53254;DHT22;39148;53.332;6.922;2022-08-01T11:52:09;21.80;78.30
53254;DHT22;39148;53.332;6.922;2022-08-01T11:54:49;21.90;76.80
53254;DHT22;39148;53.332;6.922;2022-08-01T11:57:29;21.90;78.10
53254;DHT22;39148;53.332;6.922;2022-08-01T11:59:57;22.00;77.00
53254;DHT22;39148;53.332;6.922;2022-08-01T12:02:34;21.90;77.90
53254;DHT22;39148;53.332;6.922;2022-08-01T12:05:06;22.10;78.10
53254;DHT22;39148;53.332;6.922;2022-08-01T12:07:32;22.10;76.70
53254;DHT22;39148;53.332;6.922;2022-08-01T12:10:05;22.00;77.90
53254;DHT22;39148;53.332;6.922;2022-08-01T12:12:33;22.00;76.50
53254;DHT22;39148;53.332;6.922;2022-08-01T12:15:01;22.00;77.60
53254;DHT22;39148;53.332;6.922;2022-08-01T12:19:54;22.20;77.50
53254;DHT22;39148;53.332;6.922;2022-08-01T12:22:22;22.20;77.50
53254;DHT22;39148;53.332;6.922;2022-08-01T12:24:48;22.10;77.50
53254;DHT22;39148;53.332;6.922;2022-08-01T12:27:28;22.20;77.40
53254;DHT22;39148;53.332;6.922;2022-08-01T12:29:56;22.20;76.40
53254;DHT22;39148;53.332;6.922;2022-08-01T12:32:31;22.30;77.50
53254;DHT22;39148;53.332;6.922;2022-08-01T12:35:02;22.30;77.60
53254;DHT22;39148;53.332;6.922;2022-08-01T12:37:28;22.30;77.50
53254;DHT22;39148;53.332;6.922;2022-08-01T12:39:54;22.30;77.70
53254;DHT22;39148;53.332;6.922;2022-08-01T12:42:21;22.30;77.20
53254;DHT22;39148;53.332;6.922;2022-08-01T12:44:49;22.40;77.10
53254;DHT22;39148;53.332;6.922;2022-08-01T12:47:18;22.40;77.10
53254;DHT22;39148;53.332;6.922;2022-08-01T12:49:44;22.40;77.10
53254;DHT22;39148;53.332;6.922;2022-08-01T12:52:12;22.30;76.90
53254;DHT22;39148;53.332;6.922;2022-08-01T12:55:05;22.40;76.90
53254;DHT22;39148;53.332;6.922;2022-08-01T12:57:32;22.50;76.00
53254;DHT22;39148;53.332;6.922;2022-08-01T13:00:19;22.40;77.10
53254;DHT22;39148;53.332;6.922;2022-08-01T13:02:47;22.50;76.90
53254;DHT22;39148;53.332;6.922;2022-08-01T13:05:13;22.60;76.80
53254;DHT22;39148;53.332;6.922;2022-08-01T13:07:41;22.60;76.70
53254;DHT22;39148;53.332;6.922;2022-08-01T13:10:08;22.60;76.70
53254;DHT22;39148;53.332;6.922;2022-08-01T13:12:34;22.50;76.50
53254;DHT22;39148;53.332;6.922;2022-08-01T13:15:36;22.60;76.50
53254;DHT22;39148;53.332;6.922;2022-08-01T13:18:25;22.60;76.60
53254;DHT22;39148;53.332;6.922;2022-08-01T13:23:36;22.70;75.30
53254;DHT22;39148;53.332;6.922;2022-08-01T13:26:03;22.60;76.10
53254;DHT22;39148;53.332;6.922;2022-08-01T13:28:29;22.70;76.10
53254;DHT22;39148;53.332;6.922;2022-08-01T13:31:01;22.80;76.10
53254;DHT22;39148;53.332;6.922;2022-08-01T13:33:39;22.80;76.20
53254;DHT22;39148;53.332;6.922;2022-08-01T13:36:08;22.70;76.00
53254;DHT22;39148;53.332;6.922;2022-08-01T13:38:34;22.90;75.90
53254;DHT22;39148;53.332;6.922;2022-08-01T13:41:18;22.80;74.90
53254;DHT22;39148;53.332;6.922;2022-08-01T13:43:44;23.00;75.80
53254;DHT22;39148;53.332;6.922;2022-08-01T13:46:09;22.90;75.80
53254;DHT22;39148;53.332;6.922;2022-08-01T13:48:35;22.90;75.70
53254;DHT22;39148;53.332;6.922;2022-08-01T13:51:01;22.90;75.60
53254;DHT22;39148;53.332;6.922;2022-08-01T13:53:27;22.90;75.60
53254;DHT22;39148;53.332;6.922;2022-08-01T13:55:53;23.00;75.60
53254;DHT22;39148;53.332;6.922;2022-08-01T13:58:19;23.00;75.60
53254;DHT22;39148;53.332;6.922;2022-08-01T14:00:44;23.10;75.60
53254;DHT22;39148;53.332;6.922;2022-08-01T14:03:11;22.90;75.90
53254;DHT22;39148;53.332;6.922;2022-08-01T14:05:37;23.00;75.40
53254;DHT22;39148;53.332;6.922;2022-08-01T14:08:03;23.10;75.20
53254;DHT22;39148;53.332;6.922;2022-08-01T14:10:29;23.00;74.90
53254;DHT22;39148;53.332;6.922;2022-08-01T14:12:58;23.10;75.10
53254;DHT22;39148;53.332;6.922;2022-08-01T14:15:24;23.10;75.20
53254;DHT22;39148;53.332;6.922;2022-08-01T14:17:50;23.20;75.10
53254;DHT22;39148;53.332;6.922;2022-08-01T14:20:16;23.10;75.20
53254;DHT22;39148;53.332;6.922;2022-08-01T14:22:45;23.20;75.10
53254;DHT22;39148;53.332;6.922;2022-08-01T14:25:11;23.20;75.20
53254;DHT22;39148;53.332;6.922;2022-08-01T14:27:37;23.30;75.10
53254;DHT22;39148;53.332;6.922;2022-08-01T14:30:05;23.20;75.00
53254;DHT22;39148;53.332;6.922;2022-08-01T14:32:31;23.30;74.80
53254;DHT22;39148;53.332;6.922;2022-08-01T14:34:59;23.30;74.90
53254;DHT22;39148;53.332;6.922;2022-08-01T14:37:25;23.20;74.90
53254;DHT22;39148;53.332;6.922;2022-08-01T14:39:50;23.30;74.80
53254;DHT22;39148;53.332;6.922;2022-08-01T14:42:16;23.40;74.80
53254;DHT22;39148;53.332;6.922;2022-08-01T14:44:42;23.30;74.80
53254;DHT22;39148;53.332;6.922;2022-08-01T14:47:07;23.40;74.80
53254;DHT22;39148;53.332;6.922;2022-08-01T14:49:33;23.30;74.60
53254;DHT22;39148;53.332;6.922;2022-08-01T14:51:59;23.40;74.60
53254;DHT22;39148;53.332;6.922;2022-08-01T14:54:25;23.30;74.50
53254;DHT22;39148;53.332;6.922;2022-08-01T14:56:50;23.50;74.50
53254;DHT22;39148;53.332;6.922;2022-08-01T14:59:18;23.40;74.40
53254;DHT22;39148;53.332;6.922;2022-08-01T15:01:44;23.60;74.50
53254;DHT22;39148;53.332;6.922;2022-08-01T15:04:10;23.60;74.40
53254;DHT22;39148;53.332;6.922;2022-08-01T15:06:35;23.50;74.30
53254;DHT22;39148;53.332;6.922;2022-08-01T15:09:01;23.50;74.20
53254;DHT22;39148;53.332;6.922;2022-08-01T15:11:27;23.60;74.30
53254;DHT22;39148;53.332;6.922;2022-08-01T15:13:53;23.60;74.20
53254;DHT22;39148;53.332;6.922;2022-08-01T15:16:37;23.60;73.20
53254;DHT22;39148;53.332;6.922;2022-08-01T15:19:03;23.70;74.20
53254;DHT22;39148;53.332;6.922;2022-08-01T15:21:29;23.60;74.00
53254;DHT22;39148;53.332;6.922;2022-08-01T15:23:55;23.60;73.90
53254;DHT22;39148;53.332;6.922;2022-08-01T15:26:20;23.70;74.00
53254;DHT22;39148;53.332;6.922;2022-08-01T15:28:46;23.70;73.90
53254;DHT22;39148;53.332;6.922;2022-08-01T15:31:12;23.70;73.90
53254;DHT22;39148;53.332;6.922;2022-08-01T15:33:38;23.80;73.90
53254;DHT22;39148;53.332;6.922;2022-08-01T15:36:04;23.70;73.80
53254;DHT22;39148;53.332;6.922;2022-08-01T15:38:30;23.70;73.70
53254;DHT22;39148;53.332;6.922;2022-08-01T15:40:55;23.80;73.60
53254;DHT22;39148;53.332;6.922;2022-08-01T15:43:21;23.70;73.50
53254;DHT22;39148;53.332;6.922;2022-08-01T15:45:47;23.80;73.50
53254;DHT22;39148;53.332;6.922;2022-08-01T15:48:12;23.80;73.30
53254;DHT22;39148;53.332;6.922;2022-08-01T15:50:38;23.80;73.40
53254;DHT22;39148;53.332;6.922;2022-08-01T15:53:05;23.80;73.40
53254;DHT22;39148;53.332;6.922;2022-08-01T15:55:31;23.80;73.40
53254;DHT22;39148;53.332;6.922;2022-08-01T15:57:56;23.80;73.20
53254;DHT22;39148;53.332;6.922;2022-08-01T16:00:22;24.20;73.40
53254;DHT22;39148;53.332;6.922;2022-08-01T16:02:48;23.80;73.20
53254;DHT22;39148;53.332;6.922;2022-08-01T16:05:13;23.90;73.20
53254;DHT22;39148;53.332;6.922;2022-08-01T16:07:39;24.00;73.20
53254;DHT22;39148;53.332;6.922;2022-08-01T16:10:05;23.90;73.10
53254;DHT22;39148;53.332;6.922;2022-08-01T16:12:31;23.90;72.90
53254;DHT22;39148;53.332;6.922;2022-08-01T16:14:57;23.90;73.10
53254;DHT22;39148;53.332;6.922;2022-08-01T16:17:23;23.90;73.20
53254;DHT22;39148;53.332;6.922;2022-08-01T16:19:48;24.00;73.20
53254;DHT22;39148;53.332;6.922;2022-08-01T16:22:15;23.90;73.10
53254;DHT22;39148;53.332;6.922;2022-08-01T16:24:41;23.90;73.10
53254;DHT22;39148;53.332;6.922;2022-08-01T16:27:07;24.00;73.10
53254;DHT22;39148;53.332;6.922;2022-08-01T16:29:32;23.80;73.00
53254;DHT22;39148;53.332;6.922;2022-08-01T16:31:59;24.00;73.10
53254;DHT22;39148;53.332;6.922;2022-08-01T16:34:26;24.00;73.10
53254;DHT22;39148;53.332;6.922;2022-08-01T16:36:52;23.90;73.10
53254;DHT22;39148;53.332;6.922;2022-08-01T16:39:20;23.80;73.00
53254;DHT22;39148;53.332;6.922;2022-08-01T16:41:46;23.80;73.10
53254;DHT22;39148;53.332;6.922;2022-08-01T16:44:12;24.10;73.10
53254;DHT22;39148;53.332;6.922;2022-08-01T16:46:38;23.90;73.00
53254;DHT22;39148;53.332;6.922;2022-08-01T16:49:03;23.80;73.00
53254;DHT22;39148;53.332;6.922;2022-08-01T16:51:31;23.90;73.10